sensor_id;sensor_type;location;lat;lon;timestamp;P1;durP1;ratioP1;P2;durP2;ratioP2
74229;SDS011;62589;12.568;99.958;2022-09-03T00:00:34;1.20;;;0.47;;
74229;SDS011;62589;12.568;99.958;2022-09-03T00:03:14;1.70;;;0.60;;
74229;SDS011;62589;12.568;99.958;2022-09-03T00:05:50;2.27;;;0.80;;
74229;SDS011;62589;12.568;99.958;2022-09-03T00:08:27;1.05;;;0.95;;
74229;SDS011;62589;12.568;99.958;2022-09-03T00:11:09;0.60;;;0.60;;
74229;SDS011;62589;12.568;99.958;2022-09-03T00:13:58;0.82;;;0.40;;
74229;SDS011;62589;12.568;99.958;2022-09-03T00:16:34;1.73;;;0.50;;
74229;SDS011;62589;12.568;99.958;2022-09-03T00:19:09;0.77;;;0.50;;
74229;SDS011;62589;12.568;99.958;2022-09-03T00:21:43;0.57;;;0.40;;
74229;SDS011;62589;12.568;99.958;2022-09-03T00:24:14;0.38;;;0.38;;
74229;SDS011;62589;12.568;99.958;2022-09-03T00:26:45;0.52;;;0.30;;
74229;SDS011;62589;12.568;99.958;2022-09-03T00:29:20;0.60;;;0.50;;
74229;SDS011;62589;12.568;99.958;2022-09-03T00:31:53;1.67;;;0.50;;
74229;SDS011;62589;12.568;99.958;2022-09-03T00:34:25;3.30;;;0.40;;
74229;SDS011;62589;12.568;99.958;2022-09-03T00:37:12;1.30;;;0.35;;
74229;SDS011;62589;12.568;99.958;2022-09-03T00:39:38;3.80;;;0.57;;
74229;SDS011;62589;12.568;99.958;2022-09-03T00:42:16;2.08;;;0.55;;
74229;SDS011;62589;12.568;99.958;2022-09-03T00:48:13;0.47;;;0.47;;
74229;SDS011;62589;12.568;99.958;2022-09-03T00:51:01;0.50;;;0.50;;
74229;SDS011;62589;12.568;99.958;2022-09-03T00:53:55;1.13;;;0.75;;
74229;SDS011;62589;12.568;99.958;2022-09-03T00:59:37;2.17;;;0.63;;
74229;SDS011;62589;12.568;99.958;2022-09-03T01:02:34;1.55;;;0.50;;
74229;SDS011;62589;12.568;99.958;2022-09-03T01:05:33;1.20;;;0.50;;
74229;SDS011;62589;12.568;99.958;2022-09-03T01:11:16;1.65;;;0.30;;
74229;SDS011;62589;12.568;99.958;2022-09-03T01:16:55;0.50;;;0.47;;
74229;SDS011;62589;12.568;99.958;2022-09-03T01:19:46;0.30;;;0.28;;
74229;SDS011;62589;12.568;99.958;2022-09-03T01:28:48;0.68;;;0.40;;
74229;SDS011;62589;12.568;99.958;2022-09-03T01:34:31;1.63;;;0.32;;
74229;SDS011;62589;12.568;99.958;2022-09-03T01:40:26;1.63;;;0.45;;
74229;SDS011;62589;12.568;99.958;2022-09-03T01:43:20;0.68;;;0.68;;
74229;SDS011;62589;12.568;99.958;2022-09-03T01:46:09;2.25;;;0.60;;
74229;SDS011;62589;12.568;99.958;2022-09-03T01:48:48;2.50;;;0.80;;
74229;SDS011;62589;12.568;99.958;2022-09-03T01:51:30;1.20;;;0.50;;
74229;SDS011;62589;12.568;99.958;2022-09-03T01:57:01;1.25;;;0.70;;
74229;SDS011;62589;12.568;99.958;2022-09-03T02:02:26;1.38;;;0.63;;
74229;SDS011;62589;12.568;99.958;2022-09-03T02:04:59;0.60;;;0.50;;
74229;SDS011;62589;12.568;99.958;2022-09-03T02:07:33;0.65;;;0.55;;
74229;SDS011;62589;12.568;99.958;2022-09-03T02:10:04;0.73;;;0.60;;
74229;SDS011;62589;12.568;99.958;2022-09-03T02:12:32;0.55;;;0.43;;
74229;SDS011;62589;12.568;99.958;2022-09-03T02:15:03;1.02;;;0.75;;
74229;SDS011;62589;12.568;99.958;2022-09-03T02:17:32;1.40;;;1.15;;
74229;SDS011;62589;12.568;99.958;2022-09-03T02:20:05;2.40;;;1.70;;
74229;SDS011;62589;12.568;99.958;2022-09-03T02:22:36;3.80;;;2.13;;
74229;SDS011;62589;12.568;99.958;2022-09-03T02:25:04;4.03;;;2.22;;
74229;SDS011;62589;12.568;99.958;2022-09-03T02:27:32;2.08;;;1.80;;
74229;SDS011;62589;12.568;99.958;2022-09-03T02:29:59;4.68;;;2.45;;
74229;SDS011;62589;12.568;99.958;2022-09-03T02:32:25;2.03;;;1.60;;
74229;SDS011;62589;12.568;99.958;2022-09-03T02:34:53;2.80;;;1.63;;
74229;SDS011;62589;12.568;99.958;2022-09-03T02:37:19;1.92;;;1.58;;
74229;SDS011;62589;12.568;99.958;2022-09-03T02:39:45;1.67;;;1.38;;
74229;SDS011;62589;12.568;99.958;2022-09-03T02:42:12;2.03;;;1.20;;
74229;SDS011;62589;12.568;99.958;2022-09-03T02:44:41;3.20;;;1.27;;
74229;SDS011;62589;12.568;99.958;2022-09-03T02:47:12;1.35;;;1.00;;
74229;SDS011;62589;12.568;99.958;2022-09-03T02:49:39;2.70;;;1.13;;
74229;SDS011;62589;12.568;99.958;2022-09-03T02:52:07;1.17;;;0.98;;
74229;SDS011;62589;12.568;99.958;2022-09-03T02:54:36;1.25;;;0.70;;
74229;SDS011;62589;12.568;99.958;2022-09-03T02:57:05;2.25;;;0.70;;
74229;SDS011;62589;12.568;99.958;2022-09-03T02:59:32;0.90;;;0.70;;
74229;SDS011;62589;12.568;99.958;2022-09-03T03:01:59;1.25;;;0.82;;
74229;SDS011;62589;12.568;99.958;2022-09-03T03:04:25;0.63;;;0.43;;
74229;SDS011;62589;12.568;99.958;2022-09-03T03:06:52;1.15;;;0.60;;
74229;SDS011;62589;12.568;99.958;2022-09-03T03:09:18;0.70;;;0.68;;
74229;SDS011;62589;12.568;99.958;2022-09-03T03:11:44;0.60;;;0.60;;
74229;SDS011;62589;12.568;99.958;2022-09-03T03:14:11;4.20;;;1.10;;
74229;SDS011;62589;12.568;99.958;2022-09-03T03:16:37;1.23;;;0.63;;
74229;SDS011;62589;12.568;99.958;2022-09-03T03:19:03;1.20;;;0.50;;
74229;SDS011;62589;12.568;99.958;2022-09-03T03:21:30;1.38;;;0.60;;
74229;SDS011;62589;12.568;99.958;2022-09-03T03:23:56;1.25;;;0.60;;
74229;SDS011;62589;12.568;99.958;2022-09-03T03:26:23;2.58;;;0.40;;
74229;SDS011;62589;12.568;99.958;2022-09-03T03:28:49;0.70;;;0.63;;
74229;SDS011;62589;12.568;99.958;2022-09-03T03:31:22;0.97;;;0.70;;
74229;SDS011;62589;12.568;99.958;2022-09-03T03:33:52;0.90;;;0.80;;
74229;SDS011;62589;12.568;99.958;2022-09-03T03:36:20;1.55;;;1.00;;
74229;SDS011;62589;12.568;99.958;2022-09-03T03:38:48;1.60;;;1.02;;
74229;SDS011;62589;12.568;99.958;2022-09-03T03:41:18;1.92;;;1.10;;
74229;SDS011;62589;12.568;99.958;2022-09-03T03:43:47;2.58;;;1.80;;
74229;SDS011;62589;12.568;99.958;2022-09-03T03:46:17;3.13;;;1.30;;
74229;SDS011;62589;12.568;99.958;2022-09-03T03:48:46;2.42;;;1.35;;
74229;SDS011;62589;12.568;99.958;2022-09-03T03:51:13;1.15;;;0.95;;
74229;SDS011;62589;12.568;99.958;2022-09-03T03:53:39;2.55;;;1.10;;
74229;SDS011;62589;12.568;99.958;2022-09-03T03:56:07;1.52;;;0.98;;
74229;SDS011;62589;12.568;99.958;2022-09-03T03:58:35;1.30;;;1.20;;
74229;SDS011;62589;12.568;99.958;2022-09-03T04:01:07;3.35;;;1.13;;
74229;SDS011;62589;12.568;99.958;2022-09-03T04:03:39;2.25;;;1.17;;
74229;SDS011;62589;12.568;99.958;2022-09-03T04:06:06;2.20;;;1.20;;
74229;SDS011;62589;12.568;99.958;2022-09-03T04:08:34;2.63;;;0.98;;
74229;SDS011;62589;12.568;99.958;2022-09-03T04:11:03;3.85;;;1.08;;
74229;SDS011;62589;12.568;99.958;2022-09-03T04:13:33;1.25;;;0.57;;
74229;SDS011;62589;12.568;99.958;2022-09-03T04:16:03;0.90;;;0.90;;
74229;SDS011;62589;12.568;99.958;2022-09-03T04:18:38;2.03;;;0.80;;
74229;SDS011;62589;12.568;99.958;2022-09-03T04:21:06;1.15;;;0.80;;
74229;SDS011;62589;12.568;99.958;2022-09-03T04:23:35;0.98;;;0.80;;
74229;SDS011;62589;12.568;99.958;2022-09-03T04:26:03;1.88;;;0.65;;
74229;SDS011;62589;12.568;99.958;2022-09-03T04:28:31;0.50;;;0.50;;
74229;SDS011;62589;12.568;99.958;2022-09-03T04:31:00;1.10;;;0.85;;
74229;SDS011;62589;12.568;99.958;2022-09-03T04:33:29;0.70;;;0.50;;
74229;SDS011;62589;12.568;99.958;2022-09-03T04:36:09;2.05;;;0.90;;
74229;SDS011;62589;12.568;99.958;2022-09-03T04:38:44;0.93;;;0.80;;
74229;SDS011;62589;12.568;99.958;2022-09-03T04:41:12;0.77;;;0.73;;
74229;SDS011;62589;12.568;99.958;2022-09-03T04:43:42;2.78;;;0.90;;
74229;SDS011;62589;12.568;99.958;2022-09-03T04:46:10;1.30;;;0.82;;
74229;SDS011;62589;12.568;99.958;2022-09-03T04:48:38;1.38;;;0.90;;
74229;SDS011;62589;12.568;99.958;2022-09-03T04:51:06;1.48;;;0.93;;
74229;SDS011;62589;12.568;99.958;2022-09-03T04:53:37;0.88;;;0.88;;
74229;SDS011;62589;12.568;99.958;2022-09-03T04:56:16;1.70;;;0.82;;
74229;SDS011;62589;12.568;99.958;2022-09-03T04:58:45;2.05;;;0.88;;
74229;SDS011;62589;12.568;99.958;2022-09-03T05:01:19;0.88;;;0.60;;
74229;SDS011;62589;12.568;99.958;2022-09-03T05:03:47;3.17;;;0.68;;
74229;SDS011;62589;12.568;99.958;2022-09-03T05:06:16;1.30;;;0.70;;
74229;SDS011;62589;12.568;99.958;2022-09-03T05:08:47;1.65;;;0.90;;
74229;SDS011;62589;12.568;99.958;2022-09-03T05:11:14;1.35;;;0.90;;
74229;SDS011;62589;12.568;99.958;2022-09-03T05:13:40;2.58;;;0.70;;
74229;SDS011;62589;12.568;99.958;2022-09-03T05:16:09;1.00;;;1.00;;
74229;SDS011;62589;12.568;99.958;2022-09-03T05:18:37;0.82;;;0.82;;
74229;SDS011;62589;12.568;99.958;2022-09-03T05:21:07;0.55;;;0.55;;
74229;SDS011;62589;12.568;99.958;2022-09-03T05:23:36;3.80;;;0.95;;
74229;SDS011;62589;12.568;99.958;2022-09-03T05:26:06;0.98;;;0.88;;
74229;SDS011;62589;12.568;99.958;2022-09-03T05:28:34;2.58;;;0.82;;
74229;SDS011;62589;12.568;99.958;2022-09-03T05:31:07;0.85;;;0.82;;
74229;SDS011;62589;12.568;99.958;2022-09-03T05:33:42;0.80;;;0.80;;
74229;SDS011;62589;12.568;99.958;2022-09-03T05:36:11;0.77;;;0.75;;
74229;SDS011;62589;12.568;99.958;2022-09-03T05:38:40;0.70;;;0.70;;
74229;SDS011;62589;12.568;99.958;2022-09-03T05:41:08;0.80;;;0.80;;
74229;SDS011;62589;12.568;99.958;2022-09-03T05:43:36;1.02;;;0.95;;
74229;SDS011;62589;12.568;99.958;2022-09-03T05:46:04;0.80;;;0.50;;
74229;SDS011;62589;12.568;99.958;2022-09-03T05:48:42;1.02;;;0.70;;
74229;SDS011;62589;12.568;99.958;2022-09-03T05:51:14;1.42;;;0.80;;
74229;SDS011;62589;12.568;99.958;2022-09-03T05:53:44;0.70;;;0.70;;
74229;SDS011;62589;12.568;99.958;2022-09-03T05:56:13;1.15;;;0.88;;
74229;SDS011;62589;12.568;99.958;2022-09-03T05:58:44;1.08;;;0.65;;
74229;SDS011;62589;12.568;99.958;2022-09-03T06:01:19;2.25;;;0.90;;
74229;SDS011;62589;12.568;99.958;2022-09-03T06:03:49;1.50;;;0.70;;
74229;SDS011;62589;12.568;99.958;2022-09-03T06:06:22;1.63;;;0.90;;
74229;SDS011;62589;12.568;99.958;2022-09-03T06:08:50;1.30;;;0.88;;
74229;SDS011;62589;12.568;99.958;2022-09-03T06:11:17;1.85;;;0.75;;
74229;SDS011;62589;12.568;99.958;2022-09-03T06:13:44;1.98;;;1.00;;
74229;SDS011;62589;12.568;99.958;2022-09-03T06:16:10;1.25;;;0.85;;
74229;SDS011;62589;12.568;99.958;2022-09-03T06:18:37;0.88;;;0.63;;
74229;SDS011;62589;12.568;99.958;2022-09-03T06:21:04;1.48;;;0.93;;
74229;SDS011;62589;12.568;99.958;2022-09-03T06:23:32;1.63;;;0.95;;
74229;SDS011;62589;12.568;99.958;2022-09-03T06:26:00;1.00;;;1.00;;
74229;SDS011;62589;12.568;99.958;2022-09-03T06:28:38;2.55;;;1.23;;
74229;SDS011;62589;12.568;99.958;2022-09-03T06:31:08;1.33;;;0.90;;
74229;SDS011;62589;12.568;99.958;2022-09-03T06:33:39;2.40;;;0.80;;
74229;SDS011;62589;12.568;99.958;2022-09-03T06:36:07;1.13;;;0.70;;
74229;SDS011;62589;12.568;99.958;2022-09-03T06:38:44;0.98;;;0.88;;
74229;SDS011;62589;12.568;99.958;2022-09-03T06:41:13;2.03;;;0.90;;
74229;SDS011;62589;12.568;99.958;2022-09-03T06:44:01;1.05;;;0.95;;
74229;SDS011;62589;12.568;99.958;2022-09-03T06:46:31;3.55;;;0.80;;
74229;SDS011;62589;12.568;99.958;2022-09-03T06:48:59;0.70;;;0.70;;
74229;SDS011;62589;12.568;99.958;2022-09-03T06:51:26;1.13;;;0.90;;
74229;SDS011;62589;12.568;99.958;2022-09-03T06:53:58;1.55;;;0.90;;
74229;SDS011;62589;12.568;99.958;2022-09-03T06:56:33;0.75;;;0.70;;
74229;SDS011;62589;12.568;99.958;2022-09-03T06:59:05;1.52;;;0.90;;
74229;SDS011;62589;12.568;99.958;2022-09-03T07:01:34;1.42;;;1.00;;
74229;SDS011;62589;12.568;99.958;2022-09-03T07:04:05;1.27;;;0.70;;
74229;SDS011;62589;12.568;99.958;2022-09-03T07:06:34;2.17;;;0.90;;
74229;SDS011;62589;12.568;99.958;2022-09-03T07:09:03;1.35;;;1.00;;
74229;SDS011;62589;12.568;99.958;2022-09-03T07:11:31;0.80;;;0.70;;
74229;SDS011;62589;12.568;99.958;2022-09-03T07:14:00;0.80;;;0.77;;
74229;SDS011;62589;12.568;99.958;2022-09-03T07:16:29;1.60;;;0.98;;
74229;SDS011;62589;12.568;99.958;2022-09-03T07:18:58;0.60;;;0.60;;
74229;SDS011;62589;12.568;99.958;2022-09-03T07:21:28;2.20;;;0.77;;
74229;SDS011;62589;12.568;99.958;2022-09-03T07:23:58;1.05;;;0.60;;
74229;SDS011;62589;12.568;99.958;2022-09-03T07:26:26;2.95;;;1.13;;
74229;SDS011;62589;12.568;99.958;2022-09-03T07:28:55;0.88;;;0.75;;
74229;SDS011;62589;12.568;99.958;2022-09-03T07:31:31;1.63;;;0.80;;
74229;SDS011;62589;12.568;99.958;2022-09-03T07:34:00;0.68;;;0.68;;
74229;SDS011;62589;12.568;99.958;2022-09-03T07:36:31;2.55;;;0.88;;
74229;SDS011;62589;12.568;99.958;2022-09-03T07:39:03;1.10;;;0.80;;
74229;SDS011;62589;12.568;99.958;2022-09-03T07:41:30;1.02;;;0.80;;
74229;SDS011;62589;12.568;99.958;2022-09-03T07:43:58;2.28;;;0.73;;
74229;SDS011;62589;12.568;99.958;2022-09-03T07:46:30;2.27;;;0.83;;
74229;SDS011;62589;12.568;99.958;2022-09-03T07:48:59;0.80;;;0.80;;
74229;SDS011;62589;12.568;99.958;2022-09-03T07:51:27;1.92;;;0.68;;
74229;SDS011;62589;12.568;99.958;2022-09-03T07:53:57;1.88;;;0.90;;
74229;SDS011;62589;12.568;99.958;2022-09-03T07:56:27;0.95;;;0.77;;
74229;SDS011;62589;12.568;99.958;2022-09-03T07:58:57;2.17;;;0.90;;
74229;SDS011;62589;12.568;99.958;2022-09-03T08:01:24;0.65;;;0.65;;
74229;SDS011;62589;12.568;99.958;2022-09-03T08:03:57;3.17;;;0.75;;
74229;SDS011;62589;12.568;99.958;2022-09-03T08:06:25;1.23;;;0.90;;
74229;SDS011;62589;12.568;99.958;2022-09-03T08:08:54;2.78;;;1.42;;
74229;SDS011;62589;12.568;99.958;2022-09-03T08:11:26;2.05;;;1.58;;
74229;SDS011;62589;12.568;99.958;2022-09-03T08:13:55;5.43;;;2.50;;
74229;SDS011;62589;12.568;99.958;2022-09-03T08:16:28;12.27;;;6.60;;
74229;SDS011;62589;12.568;99.958;2022-09-03T08:18:55;17.75;;;10.25;;
74229;SDS011;62589;12.568;99.958;2022-09-03T08:21:22;19.80;;;11.48;;
74229;SDS011;62589;12.568;99.958;2022-09-03T08:23:50;15.02;;;9.80;;
74229;SDS011;62589;12.568;99.958;2022-09-03T08:26:19;12.90;;;7.30;;
74229;SDS011;62589;12.568;99.958;2022-09-03T08:28:47;6.95;;;4.15;;
74229;SDS011;62589;12.568;99.958;2022-09-03T08:31:15;4.03;;;2.33;;
74229;SDS011;62589;12.568;99.958;2022-09-03T08:33:48;3.55;;;2.30;;
74229;SDS011;62589;12.568;99.958;2022-09-03T08:36:18;2.25;;;1.20;;
74229;SDS011;62589;12.568;99.958;2022-09-03T08:38:52;2.17;;;1.15;;
74229;SDS011;62589;12.568;99.958;2022-09-03T08:41:26;1.77;;;1.20;;
74229;SDS011;62589;12.568;99.958;2022-09-03T08:44:21;1.08;;;0.80;;
74229;SDS011;62589;12.568;99.958;2022-09-03T08:49:53;0.63;;;0.57;;
74229;SDS011;62589;12.568;99.958;2022-09-03T08:52:49;1.10;;;0.60;;
74229;SDS011;62589;12.568;99.958;2022-09-03T08:55:35;1.13;;;0.55;;
74229;SDS011;62589;12.568;99.958;2022-09-03T08:58:24;0.75;;;0.50;;
74229;SDS011;62589;12.568;99.958;2022-09-03T09:01:00;0.50;;;0.45;;
74229;SDS011;62589;12.568;99.958;2022-09-03T09:03:41;1.30;;;0.50;;
74229;SDS011;62589;12.568;99.958;2022-09-03T09:09:29;1.40;;;0.30;;
74229;SDS011;62589;12.568;99.958;2022-09-03T09:12:20;1.00;;;0.60;;
74229;SDS011;62589;12.568;99.958;2022-09-03T09:20:47;0.80;;;0.50;;
74229;SDS011;62589;12.568;99.958;2022-09-03T09:23:28;0.60;;;0.60;;
74229;SDS011;62589;12.568;99.958;2022-09-03T09:26:16;1.00;;;0.60;;
74229;SDS011;62589;12.568;99.958;2022-09-03T09:28:46;0.65;;;0.50;;
74229;SDS011;62589;12.568;99.958;2022-09-03T09:31:22;1.45;;;0.80;;
74229;SDS011;62589;12.568;99.958;2022-09-03T09:33:49;1.80;;;0.95;;
74229;SDS011;62589;12.568;99.958;2022-09-03T09:36:17;1.27;;;0.75;;
74229;SDS011;62589;12.568;99.958;2022-09-03T09:38:44;1.05;;;0.80;;
74229;SDS011;62589;12.568;99.958;2022-09-03T09:41:19;0.80;;;0.80;;
74229;SDS011;62589;12.568;99.958;2022-09-03T09:43:58;0.90;;;0.60;;
74229;SDS011;62589;12.568;99.958;2022-09-03T09:46:36;0.55;;;0.55;;
74229;SDS011;62589;12.568;99.958;2022-09-03T09:52:08;0.70;;;0.57;;
74229;SDS011;62589;12.568;99.958;2022-09-03T09:54:37;1.48;;;1.00;;
74229;SDS011;62589;12.568;99.958;2022-09-03T09:57:06;1.10;;;0.73;;
74229;SDS011;62589;12.568;99.958;2022-09-03T09:59:42;1.73;;;0.82;;
74229;SDS011;62589;12.568;99.958;2022-09-03T10:02:18;4.03;;;1.30;;
74229;SDS011;62589;12.568;99.958;2022-09-03T10:04:54;3.72;;;1.48;;
74229;SDS011;62589;12.568;99.958;2022-09-03T10:07:36;2.30;;;1.08;;
74229;SDS011;62589;12.568;99.958;2022-09-03T10:10:04;1.80;;;1.45;;
74229;SDS011;62589;12.568;99.958;2022-09-03T10:24:25;6.22;;;2.67;;
74229;SDS011;62589;12.568;99.958;2022-09-03T10:27:06;4.45;;;2.78;;
74229;SDS011;62589;12.568;99.958;2022-09-03T10:29:35;3.42;;;2.03;;
74229;SDS011;62589;12.568;99.958;2022-09-03T10:37:39;3.05;;;2.05;;
74229;SDS011;62589;12.568;99.958;2022-09-03T10:40:41;4.18;;;2.10;;
74229;SDS011;62589;12.568;99.958;2022-09-03T10:43:46;2.65;;;1.75;;
74229;SDS011;62589;12.568;99.958;2022-09-03T10:46:26;2.88;;;2.17;;
74229;SDS011;62589;12.568;99.958;2022-09-03T10:52:10;5.00;;;2.53;;
74229;SDS011;62589;12.568;99.958;2022-09-03T10:55:02;5.70;;;3.13;;
74229;SDS011;62589;12.568;99.958;2022-09-03T10:57:57;4.47;;;2.95;;
74229;SDS011;62589;12.568;99.958;2022-09-03T11:00:45;5.00;;;3.08;;
74229;SDS011;62589;12.568;99.958;2022-09-03T11:03:26;4.57;;;2.83;;
74229;SDS011;62589;12.568;99.958;2022-09-03T11:06:09;4.68;;;2.28;;
74229;SDS011;62589;12.568;99.958;2022-09-03T11:08:55;4.13;;;2.70;;
74229;SDS011;62589;12.568;99.958;2022-09-03T11:11:31;7.00;;;2.55;;
74229;SDS011;62589;12.568;99.958;2022-09-03T11:14:06;3.53;;;2.45;;
74229;SDS011;62589;12.568;99.958;2022-09-03T11:19:26;4.32;;;2.40;;
74229;SDS011;62589;12.568;99.958;2022-09-03T11:22:02;4.28;;;2.58;;
74229;SDS011;62589;12.568;99.958;2022-09-03T11:24:31;5.97;;;3.10;;
74229;SDS011;62589;12.568;99.958;2022-09-03T11:27:04;7.15;;;2.90;;
74229;SDS011;62589;12.568;99.958;2022-09-03T11:29:59;6.90;;;3.38;;
74229;SDS011;62589;12.568;99.958;2022-09-03T11:32:48;6.45;;;3.50;;
74229;SDS011;62589;12.568;99.958;2022-09-03T11:38:18;7.72;;;4.10;;
74229;SDS011;62589;12.568;99.958;2022-09-03T11:40:59;8.95;;;3.75;;
74229;SDS011;62589;12.568;99.958;2022-09-03T11:43:37;6.35;;;3.42;;
74229;SDS011;62589;12.568;99.958;2022-09-03T11:46:12;6.28;;;3.85;;
74229;SDS011;62589;12.568;99.958;2022-09-03T11:48:56;8.25;;;4.38;;
74229;SDS011;62589;12.568;99.958;2022-09-03T11:51:36;8.95;;;4.53;;
74229;SDS011;62589;12.568;99.958;2022-09-03T11:54:22;5.88;;;4.22;;
74229;SDS011;62589;12.568;99.958;2022-09-03T11:56:50;8.73;;;4.90;;
74229;SDS011;62589;12.568;99.958;2022-09-03T11:59:38;8.07;;;5.03;;
74229;SDS011;62589;12.568;99.958;2022-09-03T12:04:57;8.33;;;4.80;;
74229;SDS011;62589;12.568;99.958;2022-09-03T12:22:18;7.75;;;3.90;;
74229;SDS011;62589;12.568;99.958;2022-09-03T12:24:47;6.80;;;3.40;;
74229;SDS011;62589;12.568;99.958;2022-09-03T12:27:19;5.25;;;3.05;;
74229;SDS011;62589;12.568;99.958;2022-09-03T12:30:04;4.88;;;3.20;;
74229;SDS011;62589;12.568;99.958;2022-09-03T12:32:38;7.03;;;3.60;;
74229;SDS011;62589;12.568;99.958;2022-09-03T12:35:13;8.52;;;3.85;;
74229;SDS011;62589;12.568;99.958;2022-09-03T12:37:41;8.52;;;4.22;;
74229;SDS011;62589;12.568;99.958;2022-09-03T12:42:53;9.33;;;4.90;;
74229;SDS011;62589;12.568;99.958;2022-09-03T12:45:21;8.77;;;4.85;;
74229;SDS011;62589;12.568;99.958;2022-09-03T12:47:49;10.00;;;5.13;;
74229;SDS011;62589;12.568;99.958;2022-09-03T12:50:22;6.60;;;4.40;;
74229;SDS011;62589;12.568;99.958;2022-09-03T12:52:53;6.18;;;4.03;;
74229;SDS011;62589;12.568;99.958;2022-09-03T12:55:25;8.93;;;4.68;;
74229;SDS011;62589;12.568;99.958;2022-09-03T12:58:13;9.93;;;4.40;;
74229;SDS011;62589;12.568;99.958;2022-09-03T13:01:03;8.30;;;4.65;;
74229;SDS011;62589;12.568;99.958;2022-09-03T13:03:43;6.90;;;4.47;;
74229;SDS011;62589;12.568;99.958;2022-09-03T13:06:14;8.30;;;4.57;;
74229;SDS011;62589;12.568;99.958;2022-09-03T13:08:46;5.45;;;3.70;;
74229;SDS011;62589;12.568;99.958;2022-09-03T13:11:16;6.38;;;3.15;;
74229;SDS011;62589;12.568;99.958;2022-09-03T13:25:28;5.03;;;3.08;;
74229;SDS011;62589;12.568;99.958;2022-09-03T13:39:58;5.90;;;3.42;;
74229;SDS011;62589;12.568;99.958;2022-09-03T13:42:50;4.70;;;2.95;;
74229;SDS011;62589;12.568;99.958;2022-09-03T13:56:46;4.70;;;2.03;;
74229;SDS011;62589;12.568;99.958;2022-09-03T14:02:19;3.15;;;1.55;;
74229;SDS011;62589;12.568;99.958;2022-09-03T14:05:01;2.67;;;1.38;;
74229;SDS011;62589;12.568;99.958;2022-09-03T14:13:28;3.53;;;2.13;;
74229;SDS011;62589;12.568;99.958;2022-09-03T14:16:13;5.13;;;1.80;;
74229;SDS011;62589;12.568;99.958;2022-09-03T14:21:44;2.55;;;1.38;;
74229;SDS011;62589;12.568;99.958;2022-09-03T14:24:30;2.03;;;1.50;;
74229;SDS011;62589;12.568;99.958;2022-09-03T14:27:22;3.42;;;1.83;;
74229;SDS011;62589;12.568;99.958;2022-09-03T14:29:53;3.17;;;1.77;;
74229;SDS011;62589;12.568;99.958;2022-09-03T14:32:29;2.25;;;1.50;;
74229;SDS011;62589;12.568;99.958;2022-09-03T14:35:33;3.42;;;1.48;;
74229;SDS011;62589;12.568;99.958;2022-09-03T14:41:21;2.60;;;1.60;;
74229;SDS011;62589;12.568;99.958;2022-09-03T14:50:11;2.97;;;1.80;;
74229;SDS011;62589;12.568;99.958;2022-09-03T14:55:58;4.80;;;1.73;;
74229;SDS011;62589;12.568;99.958;2022-09-03T15:01:32;4.32;;;1.95;;
74229;SDS011;62589;12.568;99.958;2022-09-03T15:10:11;1.75;;;1.00;;
74229;SDS011;62589;12.568;99.958;2022-09-03T15:13:09;1.70;;;0.80;;
74229;SDS011;62589;12.568;99.958;2022-09-03T15:15:46;0.82;;;0.60;;
74229;SDS011;62589;12.568;99.958;2022-09-03T15:21:06;1.50;;;0.80;;
74229;SDS011;62589;12.568;99.958;2022-09-03T15:26:51;0.77;;;0.50;;
74229;SDS011;62589;12.568;99.958;2022-09-03T15:29:45;1.58;;;0.70;;
74229;SDS011;62589;12.568;99.958;2022-09-03T15:35:09;1.95;;;0.70;;
74229;SDS011;62589;12.568;99.958;2022-09-03T15:37:54;2.03;;;0.70;;
74229;SDS011;62589;12.568;99.958;2022-09-03T15:40:28;1.33;;;0.70;;
74229;SDS011;62589;12.568;99.958;2022-09-03T15:45:53;2.25;;;0.70;;
74229;SDS011;62589;12.568;99.958;2022-09-03T15:57:25;0.77;;;0.60;;
74229;SDS011;62589;12.568;99.958;2022-09-03T16:00:20;1.02;;;0.60;;
74229;SDS011;62589;12.568;99.958;2022-09-03T16:08:36;0.93;;;0.60;;
74229;SDS011;62589;12.568;99.958;2022-09-03T16:14:14;0.88;;;0.50;;
74229;SDS011;62589;12.568;99.958;2022-09-03T16:23:11;2.45;;;0.70;;
74229;SDS011;62589;12.568;99.958;2022-09-03T16:25:54;1.73;;;0.63;;
74229;SDS011;62589;12.568;99.958;2022-09-03T16:31:28;3.55;;;0.60;;
74229;SDS011;62589;12.568;99.958;2022-09-03T16:34:30;1.02;;;0.68;;
74229;SDS011;62589;12.568;99.958;2022-09-03T16:40:12;1.05;;;0.43;;
74229;SDS011;62589;12.568;99.958;2022-09-03T16:42:59;0.98;;;0.35;;
74229;SDS011;62589;12.568;99.958;2022-09-03T16:48:55;1.00;;;0.47;;
74229;SDS011;62589;12.568;99.958;2022-09-03T16:54:54;1.27;;;0.32;;
74229;SDS011;62589;12.568;99.958;2022-09-03T17:00:41;1.25;;;0.45;;
74229;SDS011;62589;12.568;99.958;2022-09-03T17:09:23;1.60;;;0.57;;
74229;SDS011;62589;12.568;99.958;2022-09-03T17:12:15;0.75;;;0.40;;
74229;SDS011;62589;12.568;99.958;2022-09-03T17:17:54;1.00;;;0.43;;
74229;SDS011;62589;12.568;99.958;2022-09-03T17:23:42;1.60;;;0.60;;
74229;SDS011;62589;12.568;99.958;2022-09-03T17:29:26;0.60;;;0.60;;
74229;SDS011;62589;12.568;99.958;2022-09-03T17:32:27;1.63;;;0.60;;
74229;SDS011;62589;12.568;99.958;2022-09-03T17:35:19;0.73;;;0.52;;
74229;SDS011;62589;12.568;99.958;2022-09-03T17:41:01;1.63;;;0.70;;
74229;SDS011;62589;12.568;99.958;2022-09-03T17:52:53;1.17;;;0.90;;
74229;SDS011;62589;12.568;99.958;2022-09-03T17:58:31;1.60;;;1.05;;
74229;SDS011;62589;12.568;99.958;2022-09-03T18:01:22;2.83;;;1.33;;
74229;SDS011;62589;12.568;99.958;2022-09-03T18:03:55;2.55;;;1.35;;
74229;SDS011;62589;12.568;99.958;2022-09-03T18:09:39;1.55;;;1.23;;
74229;SDS011;62589;12.568;99.958;2022-09-03T18:18:09;3.72;;;1.88;;
74229;SDS011;62589;12.568;99.958;2022-09-03T18:20:45;2.55;;;1.95;;
74229;SDS011;62589;12.568;99.958;2022-09-03T18:23:41;2.25;;;1.67;;
74229;SDS011;62589;12.568;99.958;2022-09-03T18:26:35;5.55;;;2.42;;
74229;SDS011;62589;12.568;99.958;2022-09-03T18:32:11;5.80;;;2.83;;
74229;SDS011;62589;12.568;99.958;2022-09-03T18:34:49;4.75;;;2.92;;
74229;SDS011;62589;12.568;99.958;2022-09-03T18:37:27;4.40;;;2.65;;
74229;SDS011;62589;12.568;99.958;2022-09-03T18:40:06;5.93;;;2.63;;
74229;SDS011;62589;12.568;99.958;2022-09-03T18:45:54;6.32;;;2.70;;
74229;SDS011;62589;12.568;99.958;2022-09-03T18:48:55;5.75;;;2.53;;
74229;SDS011;62589;12.568;99.958;2022-09-03T18:51:51;4.07;;;2.50;;
74229;SDS011;62589;12.568;99.958;2022-09-03T18:55:06;3.30;;;1.60;;
74229;SDS011;62589;12.568;99.958;2022-09-03T19:01:12;2.33;;;1.65;;
74229;SDS011;62589;12.568;99.958;2022-09-03T19:04:13;3.83;;;1.90;;
74229;SDS011;62589;12.568;99.958;2022-09-03T19:10:16;3.92;;;1.73;;
74229;SDS011;62589;12.568;99.958;2022-09-03T19:13:23;3.83;;;1.65;;
74229;SDS011;62589;12.568;99.958;2022-09-03T19:16:17;6.10;;;1.98;;
74229;SDS011;62589;12.568;99.958;2022-09-03T19:19:16;2.55;;;1.50;;
74229;SDS011;62589;12.568;99.958;2022-09-03T19:22:07;1.63;;;1.52;;
74229;SDS011;62589;12.568;99.958;2022-09-03T19:24:46;2.85;;;1.58;;
74229;SDS011;62589;12.568;99.958;2022-09-03T19:27:28;1.98;;;1.25;;
74229;SDS011;62589;12.568;99.958;2022-09-03T19:30:17;3.33;;;1.38;;
74229;SDS011;62589;12.568;99.958;2022-09-03T19:33:10;5.45;;;1.60;;
74229;SDS011;62589;12.568;99.958;2022-09-03T19:36:12;1.95;;;1.08;;
74229;SDS011;62589;12.568;99.958;2022-09-03T19:42:34;3.10;;;0.73;;
74229;SDS011;62589;12.568;99.958;2022-09-03T19:45:45;0.60;;;0.40;;
74229;SDS011;62589;12.568;99.958;2022-09-03T19:52:00;2.72;;;0.80;;
74229;SDS011;62589;12.568;99.958;2022-09-03T19:55:00;2.35;;;0.90;;